Time;durP1;ratioP1;P1;durP2;ratioP2;P2;SDS_P1;SDS_P2;PMS_P1;PMS_P2;Temp;Humidity;BMP_temperature;BMP_pressure;BME280_temperature;BME280_humidity;BME280_pressure;Samples;Min_cycle;Max_cycle;Signal;HPM_P1;HPM_P2
2022/06/13 00:00:13;;;;;;;0.30;0.30;;;14.60;99.90;;;;;;5114545;28;20649;-60
2022/06/13 00:02:39;;;;;;;0.90;0.50;;;14.60;99.90;;;;;;5114286;28;20169;-60
2022/06/13 00:05:07;;;;;;;1.33;1.13;;;14.60;99.90;;;;;;5114110;28;20205;-60
2022/06/13 00:07:33;;;;;;;0.40;0.40;;;14.50;99.90;;;;;;5114133;28;20208;-59
2022/06/13 00:09:59;;;;;;;0.55;0.55;;;14.50;99.90;;;;;;5113231;28;20173;-61
2022/06/13 00:12:25;;;;;;;0.40;0.40;;;14.50;99.90;;;;;;5112848;28;20638;-59
2022/06/13 00:14:51;;;;;;;0.80;0.68;;;14.50;99.90;;;;;;5113128;28;20185;-59
2022/06/13 00:17:17;;;;;;;0.85;0.40;;;14.50;99.90;;;;;;5112995;28;20538;-59
2022/06/13 00:19:43;;;;;;;0.77;0.52;;;14.50;99.90;;;;;;5114103;28;20169;-59
2022/06/13 00:22:09;;;;;;;0.57;0.57;;;14.50;99.90;;;;;;5113940;28;20660;-60
2022/06/13 00:24:36;;;;;;;0.40;0.40;;;14.40;99.90;;;;;;5114033;28;20181;-60
2022/06/13 00:27:03;;;;;;;0.80;0.80;;;14.30;99.90;;;;;;5113778;28;20169;-60
2022/06/13 00:29:29;;;;;;;0.90;0.65;;;14.30;99.90;;;;;;5114054;28;20292;-59
2022/06/13 00:31:55;;;;;;;0.75;0.52;;;14.20;99.90;;;;;;5113964;28;20169;-60
2022/06/13 00:34:21;;;;;;;0.50;0.38;;;14.20;99.90;;;;;;5113864;28;20252;-59
2022/06/13 00:36:47;;;;;;;0.35;0.35;;;14.20;99.90;;;;;;5112668;28;20177;-60
2022/06/13 00:39:12;;;;;;;0.57;0.43;;;14.30;99.90;;;;;;5112878;28;20169;-60
2022/06/13 00:41:41;;;;;;;0.35;0.35;;;14.40;99.90;;;;;;5112788;28;20174;-59
2022/06/13 00:44:24;;;;;;;0.30;0.30;;;14.50;99.90;;;;;;5113920;28;20535;-59
2022/06/13 00:46:50;;;;;;;0.30;0.30;;;14.50;99.90;;;;;;5113711;28;20197;-59
2022/06/13 00:49:30;;;;;;;0.52;0.52;;;14.50;99.90;;;;;;5113523;28;20630;-59
2022/06/13 00:52:12;;;;;;;1.08;0.47;;;14.50;99.90;;;;;;5113904;28;20281;-59
2022/06/13 00:54:39;;;;;;;1.95;0.90;;;14.50;99.90;;;;;;5113620;28;20538;-59
2022/06/13 00:57:08;;;;;;;0.47;0.47;;;14.50;99.90;;;;;;5113673;28;20218;-59
2022/06/13 00:59:36;;;;;;;0.40;0.40;;;14.50;99.90;;;;;;5113523;28;20220;-59
2022/06/13 01:02:03;;;;;;;0.38;0.38;;;14.60;99.90;;;;;;5113482;28;20268;-59
2022/06/13 01:04:29;;;;;;;0.65;0.60;;;14.50;99.90;;;;;;5112566;28;20177;-59
2022/06/13 01:06:56;;;;;;;0.50;0.40;;;14.50;99.90;;;;;;5112096;28;20597;-59
2022/06/13 01:11:16;;;;;;;0.60;0.55;;;14.40;99.90;;;;;;5113583;28;20177;-62
2022/06/13 01:12:09;;;;;;;0.45;0.30;;;14.40;99.90;;;;;;5113365;28;20196;-59
2022/06/13 01:14:52;;;;;;;0.55;0.55;;;14.30;99.90;;;;;;5113950;28;20500;-59
2022/06/13 01:17:49;;;;;;;0.50;0.50;;;14.20;99.90;;;;;;5113469;28;20256;-59
2022/06/13 01:20:39;;;;;;;1.17;0.80;;;14.10;99.90;;;;;;5113367;28;20193;-59
2022/06/13 01:23:41;;;;;;;0.35;0.35;;;14.10;99.90;;;;;;5113612;28;20623;-59
2022/06/13 01:26:13;;;;;;;0.77;0.73;;;14.00;99.90;;;;;;5117090;28;20688;-59
2022/06/13 01:29:05;;;;;;;0.57;0.40;;;13.90;99.90;;;;;;5117248;28;20365;-59
2022/06/13 01:31:49;;;;;;;0.45;0.45;;;13.90;99.90;;;;;;5117510;28;20176;-59
2022/06/13 01:34:37;;;;;;;0.40;0.30;;;13.90;99.90;;;;;;5117276;28;20244;-59
2022/06/13 01:37:18;;;;;;;0.63;0.63;;;13.90;99.90;;;;;;5117550;28;20238;-59
2022/06/13 01:40:19;;;;;;;0.40;0.40;;;13.80;99.90;;;;;;5117357;28;20176;-59
2022/06/13 01:43:11;;;;;;;0.60;0.60;;;13.80;99.90;;;;;;5092852;28;20215;-59
2022/06/13 01:45:40;;;;;;;0.50;0.50;;;13.90;99.90;;;;;;5116779;28;20197;-59
2022/06/13 01:48:23;;;;;;;0.70;0.57;;;13.90;99.90;;;;;;5117175;28;20630;-59
2022/06/13 01:51:08;;;;;;;0.88;0.60;;;14.00;99.90;;;;;;5117073;28;20563;-59
2022/06/13 01:53:57;;;;;;;0.50;0.50;;;14.00;99.90;;;;;;5117017;28;20194;-59
2022/06/13 01:56:56;;;;;;;1.17;0.75;;;13.90;99.90;;;;;;5115787;28;20265;-60
2022/06/13 01:59:59;;;;;;;0.47;0.47;;;13.90;99.90;;;;;;5116809;28;20169;-59
2022/06/13 02:02:41;;;;;;;0.43;0.32;;;14.00;99.90;;;;;;5116588;28;20620;-59
2022/06/13 02:05:38;;;;;;;0.93;0.50;;;14.10;99.90;;;;;;5116632;28;20197;-60
2022/06/13 02:08:09;;;;;;;0.80;0.60;;;14.10;99.90;;;;;;5116763;28;20246;-60
2022/06/13 02:10:42;;;;;;;2.45;0.85;;;14.20;99.90;;;;;;5116429;28;20556;-60
2022/06/13 02:13:15;;;;;;;1.02;0.60;;;14.10;99.90;;;;;;5116522;28;20170;-59
2022/06/13 02:15:45;;;;;;;0.98;0.55;;;14.00;99.90;;;;;;5116604;28;20218;-59
2022/06/13 02:18:33;;;;;;;0.20;0.20;;;14.00;99.90;;;;;;5116463;28;20180;-60
2022/06/13 02:21:13;;;;;;;0.38;0.38;;;14.00;99.90;;;;;;5116391;28;20190;-60
2022/06/13 02:23:46;;;;;;;0.45;0.45;;;14.10;99.90;;;;;;5116556;28;20173;-59
2022/06/13 02:26:17;;;;;;;0.73;0.63;;;14.10;99.90;;;;;;5116308;28;20209;-60
2022/06/13 02:28:59;;;;;;;0.43;0.43;;;14.10;99.90;;;;;;5116285;28;20179;-59
2022/06/13 02:31:42;;;;;;;0.40;0.40;;;14.10;99.90;;;;;;5116004;28;20172;-59
2022/06/13 02:34:20;;;;;;;0.40;0.40;;;14.10;99.90;;;;;;5116220;28;20161;-59
2022/06/13 02:37:11;;;;;;;0.60;0.60;;;14.10;99.90;;;;;;5114679;28;20180;-59
2022/06/13 02:39:44;;;;;;;1.13;0.80;;;14.10;99.90;;;;;;5116301;28;20170;-60
2022/06/13 02:42:25;;;;;;;0.70;0.70;;;14.10;99.90;;;;;;5116168;28;20173;-61
2022/06/13 02:45:13;;;;;;;0.47;0.47;;;14.10;99.90;;;;;;5115960;28;20165;-60
2022/06/13 02:47:58;;;;;;;0.60;0.43;;;14.10;99.90;;;;;;5115902;28;20177;-60
2022/06/13 02:50:30;;;;;;;0.50;0.50;;;14.10;99.90;;;;;;5115744;28;20173;-60
2022/06/13 02:53:06;;;;;;;0.28;0.25;;;14.10;99.90;;;;;;5115908;28;20169;-59
2022/06/13 02:55:43;;;;;;;1.38;0.40;;;14.10;99.90;;;;;;5115847;28;20165;-59
2022/06/13 02:58:35;;;;;;;0.55;0.47;;;14.20;99.90;;;;;;5115736;28;20176;-59
2022/06/13 03:01:16;;;;;;;0.90;0.77;;;14.20;99.90;;;;;;5115794;28;20180;-59
2022/06/13 03:04:20;;;;;;;0.75;0.50;;;14.10;99.90;;;;;;5115854;28;20538;-60
2022/06/13 03:06:46;;;;;;;1.42;1.05;;;14.10;99.90;;;;;;5080472;28;20309;-61
2022/06/13 03:09:17;;;;;;;0.70;0.65;;;14.00;99.90;;;;;;5115711;28;20573;-60
2022/06/13 03:11:43;;;;;;;0.75;0.75;;;13.90;99.90;;;;;;5115577;28;20657;-59
2022/06/13 03:14:14;;;;;;;1.02;0.68;;;13.90;99.90;;;;;;5115453;28;20169;-59
2022/06/13 03:17:14;;;;;;;1.65;0.80;;;13.90;99.90;;;;;;5115233;28;20180;-59
2022/06/13 03:19:52;;;;;;;0.77;0.63;;;13.80;99.90;;;;;;5115443;28;20258;-60
2022/06/13 03:22:17;;;;;;;0.70;0.50;;;13.90;99.90;;;;;;5113942;28;20542;-59
2022/06/13 03:24:50;;;;;;;0.65;0.55;;;13.90;99.90;;;;;;5113720;28;20173;-59
2022/06/13 03:27:28;;;;;;;0.80;0.80;;;13.90;99.90;;;;;;5115238;28;20218;-59
2022/06/13 03:30:07;;;;;;;0.68;0.63;;;13.90;99.90;;;;;;5114983;28;20179;-60
2022/06/13 03:35:51;;;;;;;0.57;0.40;;;14.00;99.90;;;;;;5111981;28;20592;-59
2022/06/13 03:38:22;;;;;;;1.10;0.82;;;14.00;99.90;;;;;;5114739;28;20225;-59
2022/06/13 03:40:52;;;;;;;1.20;0.70;;;14.00;99.90;;;;;;5115086;28;20614;-59
2022/06/13 03:43:25;;;;;;;1.05;0.80;;;14.00;99.90;;;;;;5115162;28;20181;-59
2022/06/13 03:46:06;;;;;;;0.98;0.88;;;13.90;99.90;;;;;;5113708;28;20231;-59
2022/06/13 03:48:42;;;;;;;0.47;0.47;;;13.90;99.90;;;;;;5114305;28;20169;-59
2022/06/13 03:51:13;;;;;;;0.50;0.50;;;14.00;99.90;;;;;;5114663;28;20176;-59
2022/06/13 03:54:02;;;;;;;0.43;0.43;;;14.00;99.90;;;;;;5114659;28;20522;-59
2022/06/13 03:56:35;;;;;;;1.27;0.95;;;14.00;99.90;;;;;;5114376;28;20177;-59
2022/06/13 03:59:09;;;;;;;0.75;0.75;;;14.00;99.90;;;;;;5114408;28;20166;-60
2022/06/13 04:01:48;;;;;;;0.73;0.40;;;14.00;99.90;;;;;;5114642;28;20160;-59
2022/06/13 04:04:19;;;;;;;1.88;1.00;;;14.10;99.90;;;;;;5113493;28;20180;-60
2022/06/13 04:06:44;;;;;;;0.40;0.40;;;14.00;99.90;;;;;;5114070;28;20585;-59
2022/06/13 04:09:18;;;;;;;0.70;0.68;;;14.10;99.90;;;;;;5114147;28;20264;-60
2022/06/13 04:12:07;;;;;;;0.70;0.70;;;14.10;99.90;;;;;;5114266;28;20169;-59
2022/06/13 04:14:59;;;;;;;0.52;0.40;;;14.20;99.90;;;;;;5082223;28;20215;-59
2022/06/13 04:17:30;;;;;;;0.60;0.60;;;14.40;99.90;;;;;;5110843;28;20192;-60
2022/06/13 04:20:33;;;;;;;1.58;0.98;;;14.50;99.90;;;;;;5114048;28;20176;-60
2022/06/13 04:23:08;;;;;;;0.70;0.70;;;14.60;99.90;;;;;;5112918;28;20211;-60
2022/06/13 04:25:46;;;;;;;0.93;0.90;;;14.60;99.90;;;;;;5113784;28;20569;-60
2022/06/13 04:28:34;;;;;;;0.50;0.50;;;14.70;99.90;;;;;;5113769;28;20180;-62
2022/06/13 04:31:02;;;;;;;0.98;0.60;;;14.70;99.90;;;;;;5113160;28;20385;-60
2022/06/13 04:33:36;;;;;;;0.50;0.50;;;14.80;99.90;;;;;;5111764;28;20176;-61
2022/06/13 04:36:04;;;;;;;0.90;0.77;;;14.80;99.90;;;;;;5112778;28;20177;-60
2022/06/13 04:38:31;;;;;;;0.98;0.63;;;14.90;99.90;;;;;;5113710;28;20642;-60
2022/06/13 04:41:00;;;;;;;0.73;0.60;;;14.90;99.90;;;;;;5114103;28;20173;-60
2022/06/13 04:43:33;;;;;;;0.68;0.68;;;14.90;99.90;;;;;;5113628;28;20257;-60
2022/06/13 04:46:10;;;;;;;1.05;0.80;;;15.00;99.90;;;;;;5113810;28;20201;-60
2022/06/13 04:48:40;;;;;;;0.63;0.50;;;15.00;99.90;;;;;;5113946;28;20200;-60
2022/06/13 04:51:12;;;;;;;0.45;0.38;;;15.00;99.90;;;;;;5113687;28;20172;-59
2022/06/13 04:53:59;;;;;;;0.90;0.90;;;15.10;99.90;;;;;;5114044;28;20165;-60
2022/06/13 04:56:25;;;;;;;0.47;0.47;;;15.10;99.90;;;;;;5113679;28;20176;-60
2022/06/13 04:58:54;;;;;;;1.15;0.98;;;15.10;99.90;;;;;;5112040;28;20165;-60
2022/06/13 05:01:25;;;;;;;0.55;0.52;;;15.20;99.90;;;;;;5117578;28;20260;-58
2022/06/13 05:03:53;;;;;;;0.38;0.30;;;15.30;99.90;;;;;;5116801;28;20168;-58
2022/06/13 05:06:29;;;;;;;0.45;0.45;;;15.30;99.90;;;;;;5115968;28;20229;-59
2022/06/13 05:09:03;;;;;;;0.43;0.43;;;15.40;99.90;;;;;;5117932;28;20173;-58
2022/06/13 05:11:36;;;;;;;1.00;0.75;;;15.30;99.90;;;;;;5116481;28;20188;-59
2022/06/13 05:14:08;;;;;;;0.88;0.70;;;15.40;99.90;;;;;;5117613;28;20163;-59
2022/06/13 05:16:48;;;;;;;0.60;0.60;;;15.50;99.90;;;;;;5117911;28;20577;-58
2022/06/13 05:19:28;;;;;;;0.68;0.60;;;15.60;99.90;;;;;;5117733;28;20203;-59
2022/06/13 05:21:54;;;;;;;0.32;0.32;;;15.60;99.90;;;;;;5117535;28;20268;-58
2022/06/13 05:24:42;;;;;;;1.10;1.00;;;15.60;99.90;;;;;;5116323;28;20268;-59
2022/06/13 05:27:08;;;;;;;0.80;0.77;;;15.60;99.90;;;;;;5117509;28;20197;-58
2022/06/13 05:29:35;;;;;;;0.40;0.35;;;15.70;99.90;;;;;;5117660;28;20189;-58
2022/06/13 05:32:01;;;;;;;0.98;0.70;;;15.70;99.90;;;;;;5117352;28;20169;-60
2022/06/13 05:34:34;;;;;;;0.30;0.30;;;15.70;99.90;;;;;;5117320;28;20169;-59
2022/06/13 05:37:01;;;;;;;0.77;0.52;;;15.60;99.90;;;;;;5117469;28;20178;-58
2022/06/13 05:39:27;;;;;;;0.25;0.25;;;15.60;99.90;;;;;;5116102;28;20204;-58
2022/06/13 05:41:53;;;;;;;0.47;0.47;;;15.60;99.90;;;;;;5117332;28;20169;-59
2022/06/13 05:44:19;;;;;;;0.63;0.63;;;15.60;99.90;;;;;;5117197;28;20175;-58
2022/06/13 05:46:44;;;;;;;2.08;1.10;;;15.60;99.90;;;;;;5117136;28;20688;-59
2022/06/13 05:49:12;;;;;;;0.25;0.25;;;15.60;99.90;;;;;;5116947;28;20273;-59
2022/06/13 05:51:38;;;;;;;0.25;0.20;;;15.60;99.90;;;;;;5117165;28;20229;-58
2022/06/13 05:54:04;;;;;;;0.30;0.30;;;15.60;99.90;;;;;;5115774;28;20177;-58
2022/06/13 05:56:31;;;;;;;0.30;0.30;;;15.70;99.90;;;;;;5117127;28;20529;-58
2022/06/13 05:58:57;;;;;;;0.17;0.17;;;15.80;99.90;;;;;;5115730;28;20173;-58
2022/06/13 06:01:23;;;;;;;0.10;0.10;;;15.90;99.90;;;;;;5116758;28;20173;-58
2022/06/13 06:03:48;;;;;;;0.65;0.22;;;15.80;99.90;;;;;;5116606;28;20566;-59
2022/06/13 06:06:20;;;;;;;0.03;0.03;;;15.80;99.90;;;;;;5116602;28;20227;-58
2022/06/13 06:08:47;;;;;;;0.05;0.05;;;16.00;99.90;;;;;;5115763;28;20176;-57
2022/06/13 06:11:12;;;;;;;0.40;0.40;;;15.90;99.90;;;;;;5116203;28;20601;-60
2022/06/13 06:13:38;;;;;;;0.10;0.10;;;15.90;99.90;;;;;;5115429;28;20201;-58
2022/06/13 06:16:04;;;;;;;0.20;0.20;;;15.90;99.90;;;;;;5115267;28;20173;-58
2022/06/13 06:18:30;;;;;;;0.17;0.17;;;15.90;99.90;;;;;;5098336;28;20181;-58
2022/06/13 06:20:57;;;;;;;0.13;0.13;;;16.00;99.90;;;;;;5116443;28;20161;-58
2022/06/13 06:23:22;;;;;;;0.47;0.10;;;16.00;99.90;;;;;;5116468;28;20178;-57
2022/06/13 06:25:48;;;;;;;0.90;0.55;;;16.10;99.90;;;;;;5116373;28;20209;-60
2022/06/13 06:28:21;;;;;;;0.20;0.20;;;16.20;99.90;;;;;;5116226;28;20694;-58
2022/06/13 06:30:47;;;;;;;0.40;0.40;;;16.30;99.90;;;;;;5116197;28;20173;-59
2022/06/13 06:33:12;;;;;;;0.10;0.10;;;16.20;99.90;;;;;;5114919;28;20800;-59
2022/06/13 06:35:39;;;;;;;0.30;0.30;;;16.40;99.90;;;;;;5097894;28;20177;-58
2022/06/13 06:38:06;;;;;;;0.22;0.10;;;16.40;99.90;;;;;;5116145;28;20264;-58
2022/06/13 06:40:32;;;;;;;0.10;0.10;;;16.50;99.90;;;;;;5115953;28;20161;-58
2022/06/13 06:42:58;;;;;;;0.17;0.17;;;16.60;99.90;;;;;;5115918;28;20646;-58
2022/06/13 06:45:25;;;;;;;0.30;0.30;;;16.60;99.90;;;;;;5115732;28;20196;-58
2022/06/13 06:47:52;;;;;;;0.20;0.20;;;16.60;99.90;;;;;;5115787;28;20197;-58
2022/06/13 06:50:20;;;;;;;0.30;0.22;;;16.70;99.90;;;;;;5114696;28;20170;-58
2022/06/13 06:52:46;;;;;;;0.10;0.10;;;17.00;99.90;;;;;;5114531;28;20508;-58
2022/06/13 07:00:44;;;;;;;0.10;0.10;;;17.20;99.90;;;;;;5115763;28;20176;-58
2022/06/13 07:03:09;;;;;;;0.10;0.10;;;17.50;99.90;;;;;;5115569;28;20677;-58
2022/06/13 07:05:35;;;;;;;0.10;0.10;;;17.50;99.90;;;;;;5115322;28;20212;-58
2022/06/13 07:08:01;;;;;;;0.00;0.00;;;17.40;99.90;;;;;;5114361;28;20234;-59
2022/06/13 07:10:27;;;;;;;0.20;0.20;;;17.30;99.90;;;;;;5115333;28;20173;-58
2022/06/13 07:12:53;;;;;;;0.20;0.20;;;17.20;99.90;;;;;;5115614;28;20529;-58
2022/06/13 07:15:19;;;;;;;0.00;0.00;;;17.10;99.90;;;;;;5114365;28;20181;-58
2022/06/13 07:17:45;;;;;;;0.00;0.00;;;17.30;99.90;;;;;;5115440;28;20250;-58
2022/06/13 07:20:12;;;;;;;0.13;0.10;;;17.70;99.90;;;;;;5097058;28;20304;-58
2022/06/13 07:22:49;;;;;;;0.10;0.10;;;18.00;99.90;;;;;;5114422;28;20635;-58
2022/06/13 07:25:21;;;;;;;0.30;0.10;;;17.90;99.90;;;;;;5115021;28;20254;-58
2022/06/13 07:27:47;;;;;;;0.00;0.00;;;18.00;99.90;;;;;;5115374;28;20176;-58
2022/06/13 07:30:15;;;;;;;0.00;0.00;;;18.10;99.90;;;;;;5115131;28;20174;-58
2022/06/13 07:32:43;;;;;;;0.63;0.08;;;17.90;99.90;;;;;;5115031;28;20176;-58
2022/06/13 07:35:16;;;;;;;0.00;0.00;;;17.70;99.90;;;;;;5114905;28;20216;-58
2022/06/13 07:40:28;;;;;;;0.00;0.00;;;17.60;99.90;;;;;;5114838;28;20199;-58
2022/06/13 07:42:56;;;;;;;0.10;0.10;;;17.80;99.90;;;;;;5114675;28;20279;-58
2022/06/13 07:45:24;;;;;;;0.00;0.00;;;17.50;99.90;;;;;;5114607;28;20572;-58
2022/06/13 07:47:52;;;;;;;0.08;0.08;;;17.20;99.90;;;;;;5114625;28;20180;-58
2022/06/13 07:50:21;;;;;;;0.00;0.00;;;17.10;99.90;;;;;;5114773;28;20188;-58
2022/06/13 07:52:48;;;;;;;0.20;0.10;;;17.20;99.90;;;;;;5114739;28;20218;-58
2022/06/13 07:55:15;;;;;;;0.10;0.10;;;17.30;99.90;;;;;;5096485;28;20187;-58
2022/06/13 07:57:41;;;;;;;0.70;0.70;;;17.50;99.90;;;;;;5114538;28;20170;-58
2022/06/13 08:00:11;;;;;;;0.10;0.10;;;17.70;99.90;;;;;;5114524;28;20252;-58
2022/06/13 08:02:38;;;;;;;0.05;0.00;;;17.90;99.90;;;;;;5114244;28;20173;-58
2022/06/13 08:05:05;;;;;;;0.20;0.20;;;17.90;99.90;;;;;;5114351;28;20222;-59
2022/06/13 08:07:31;;;;;;;0.10;0.10;;;18.00;99.90;;;;;;5114495;28;20189;-58
2022/06/13 08:09:57;;;;;;;0.10;0.10;;;17.90;99.90;;;;;;5113079;28;20180;-58
2022/06/13 08:12:24;;;;;;;1.17;0.40;;;17.70;99.90;;;;;;5112971;28;20204;-58
2022/06/13 08:14:49;;;;;;;0.20;0.20;;;17.80;99.90;;;;;;5114585;28;20181;-58
2022/06/13 08:17:18;;;;;;;0.10;0.10;;;17.70;99.90;;;;;;5112960;28;20260;-58
2022/06/13 08:19:43;;;;;;;0.10;0.10;;;17.60;99.90;;;;;;5114252;28;20638;-58
2022/06/13 08:22:09;;;;;;;0.10;0.10;;;18.00;99.90;;;;;;5112970;28;20174;-58
2022/06/13 08:24:35;;;;;;;0.10;0.10;;;18.80;99.90;;;;;;5114086;28;20226;-58
2022/06/13 08:27:00;;;;;;;0.35;0.35;;;18.80;99.90;;;;;;5113939;28;20629;-59
2022/06/13 08:29:26;;;;;;;0.10;0.10;;;18.70;99.90;;;;;;5113995;28;20573;-58
2022/06/13 08:31:52;;;;;;;0.15;0.15;;;18.60;99.90;;;;;;5113858;28;20173;-58
2022/06/13 08:34:19;;;;;;;0.00;0.00;;;18.50;99.90;;;;;;5113182;28;20181;-58
2022/06/13 08:36:46;;;;;;;0.10;0.10;;;18.30;99.90;;;;;;5112589;28;20177;-58
2022/06/13 08:39:12;;;;;;;0.47;0.47;;;18.20;99.90;;;;;;5112788;28;20165;-61
2022/06/13 08:42:17;;;;;;;0.10;0.03;;;18.40;99.90;;;;;;5113916;28;20176;-58
2022/06/13 08:44:54;;;;;;;0.25;0.25;;;18.50;99.90;;;;;;5114431;28;20172;-58
2022/06/13 08:47:43;;;;;;;0.05;0.05;;;18.70;99.90;;;;;;5113709;28;20595;-58
2022/06/13 08:50:43;;;;;;;0.08;0.08;;;18.60;99.90;;;;;;5113774;28;20516;-58
2022/06/13 08:53:23;;;;;;;0.08;0.08;;;18.50;99.90;;;;;;5113892;28;20197;-58
2022/06/13 08:56:08;;;;;;;0.30;0.10;;;18.10;99.90;;;;;;5112540;28;20198;-59
2022/06/13 08:58:44;;;;;;;0.00;0.00;;;18.10;99.90;;;;;;5113666;28;20189;-58
2022/06/13 09:01:42;;;;;;;0.10;0.10;;;18.70;99.90;;;;;;5113632;28;20165;-58
2022/06/13 09:04:12;;;;;;;0.00;0.00;;;19.30;99.90;;;;;;5100135;28;20185;-58
2022/06/13 09:06:44;;;;;;;0.75;0.65;;;19.80;99.90;;;;;;5113750;28;20225;-58
2022/06/13 09:09:20;;;;;;;0.08;0.08;;;20.10;99.90;;;;;;5113494;28;20191;-58
2022/06/13 09:12:02;;;;;;;0.00;0.00;;;20.40;99.90;;;;;;5113813;28;20218;-58
2022/06/13 09:14:50;;;;;;;0.00;0.00;;;20.70;99.90;;;;;;5113742;28;20169;-58
2022/06/13 09:17:32;;;;;;;0.55;0.55;;;20.40;99.90;;;;;;5113553;28;20166;-58
2022/06/13 09:20:17;;;;;;;0.00;0.00;;;20.00;99.90;;;;;;5113396;28;20161;-58
2022/06/13 09:22:45;;;;;;;0.10;0.10;;;19.90;99.90;;;;;;5113544;28;20208;-58
2022/06/13 09:25:39;;;;;;;0.08;0.08;;;20.10;99.90;;;;;;5113332;28;20169;-58
2022/06/13 09:28:16;;;;;;;0.25;0.20;;;20.40;99.90;;;;;;5113302;28;20173;-58
2022/06/13 09:30:51;;;;;;;0.10;0.10;;;19.90;99.90;;;;;;5113753;28;20204;-58
2022/06/13 09:33:59;;;;;;;0.10;0.00;;;19.60;99.90;;;;;;5113433;28;20176;-58
2022/06/13 09:36:33;;;;;;;0.20;0.10;;;19.40;99.90;;;;;;5113308;28;20196;-59
2022/06/13 09:39:04;;;;;;;0.00;0.00;;;19.60;99.90;;;;;;5113426;28;20225;-58
2022/06/13 09:41:45;;;;;;;0.00;0.00;;;20.00;99.90;;;;;;5113375;28;20187;-58
2022/06/13 09:44:35;;;;;;;0.10;0.10;;;20.30;99.90;;;;;;5113277;28;20176;-58
2022/06/13 09:47:09;;;;;;;0.00;0.00;;;20.80;99.90;;;;;;5115008;28;20216;-58
2022/06/13 09:50:04;;;;;;;0.10;0.10;;;21.00;99.90;;;;;;5117042;28;20255;-58
2022/06/13 09:52:32;;;;;;;0.10;0.10;;;20.90;99.90;;;;;;5117048;28;20177;-58
2022/06/13 09:55:33;;;;;;;0.00;0.00;;;20.90;99.90;;;;;;5116815;28;20306;-58
2022/06/13 09:58:24;;;;;;;0.10;0.10;;;20.60;99.90;;;;;;5053920;28;20190;-57
2022/06/13 10:01:06;;;;;;;0.82;0.30;;;19.80;99.90;;;;;;5114524;28;20271;-57
2022/06/13 10:03:41;;;;;;;0.13;0.13;;;19.10;99.90;;;;;;5116616;28;20165;-57
2022/06/13 10:06:28;;;;;;;0.00;0.00;;;18.60;99.90;;;;;;5116675;28;20220;-57
2022/06/13 10:09:16;;;;;;;0.00;0.00;;;18.80;99.90;;;;;;5116780;28;20538;-58
2022/06/13 10:11:50;;;;;;;0.17;0.10;;;19.40;99.90;;;;;;5116518;28;20234;-58
2022/06/13 10:14:37;;;;;;;0.10;0.10;;;20.30;99.90;;;;;;5116763;28;20614;-57
2022/06/13 10:17:25;;;;;;;0.00;0.00;;;20.60;99.90;;;;;;5116615;28;20208;-58
2022/06/13 10:20:23;;;;;;;0.10;0.10;;;20.20;99.90;;;;;;5116435;28;20646;-58
2022/06/13 10:23:04;;;;;;;0.17;0.17;;;19.90;99.90;;;;;;5102633;28;20192;-58
2022/06/13 10:25:52;;;;;;;0.30;0.00;;;19.80;99.90;;;;;;5116359;28;20546;-57
2022/06/13 10:28:20;;;;;;;0.30;0.20;;;20.00;99.90;;;;;;5116112;28;20260;-59
2022/06/13 10:30:59;;;;;;;0.00;0.00;;;19.50;99.90;;;;;;5116056;28;20181;-57
2022/06/13 10:33:57;;;;;;;0.10;0.10;;;19.20;99.90;;;;;;5116297;28;20164;-58
2022/06/13 10:36:30;;;;;;;0.00;0.00;;;19.80;99.90;;;;;;5116468;28;20681;-58
2022/06/13 10:39:02;;;;;;;0.00;0.00;;;20.20;99.90;;;;;;5116071;28;20170;-58
2022/06/13 10:41:30;;;;;;;0.00;0.00;;;20.30;99.90;;;;;;5114947;28;20166;-58
2022/06/13 10:43:57;;;;;;;0.10;0.10;;;20.10;99.90;;;;;;5116063;28;20538;-57
2022/06/13 10:46:23;;;;;;;0.10;0.10;;;20.30;99.90;;;;;;5114726;28;20224;-57
2022/06/13 10:49:07;;;;;;;0.00;0.00;;;20.70;99.90;;;;;;5115780;28;20181;-59
2022/06/13 10:51:34;;;;;;;0.00;0.00;;;21.00;99.90;;;;;;5115837;28;20645;-57
2022/06/13 10:54:24;;;;;;;0.08;0.08;;;21.30;98.90;;;;;;5115683;28;20585;-61
2022/06/13 10:57:07;;;;;;;0.77;0.25;;;21.40;99.00;;;;;;5114952;28;20181;-58
2022/06/13 10:59:36;;;;;;;0.10;0.10;;;21.50;98.60;;;;;;5114318;28;20162;-58
2022/06/13 11:02:20;;;;;;;0.10;0.10;;;21.70;98.10;;;;;;5115728;28;20253;-58
2022/06/13 11:05:01;;;;;;;0.00;0.00;;;21.50;98.10;;;;;;5115805;28;20165;-58
2022/06/13 11:07:27;;;;;;;0.00;0.00;;;20.50;97.80;;;;;;5115363;28;20231;-57
2022/06/13 11:10:01;;;;;;;0.10;0.08;;;20.10;99.90;;;;;;5115460;28;20166;-58
2022/06/13 11:12:38;;;;;;;0.00;0.00;;;20.60;99.90;;;;;;5115385;28;20171;-58
2022/06/13 11:23:57;;;;;;;0.00;0.00;;;21.40;98.40;;;;;;5115603;28;20246;-57
2022/06/13 11:29:18;;;;;;;0.00;0.00;;;20.80;99.60;;;;;;5115448;28;20191;-57
2022/06/13 11:31:55;;;;;;;0.00;0.00;;;21.10;99.50;;;;;;5096950;28;20627;-58
2022/06/13 11:34:28;;;;;;;0.17;0.17;;;21.50;98.30;;;;;;5114932;28;20177;-58
2022/06/13 11:37:22;;;;;;;0.03;0.00;;;21.50;99.40;;;;;;5114907;28;20260;-58
2022/06/13 11:39:50;;;;;;;0.00;0.00;;;21.00;98.10;;;;;;5113059;28;20181;-58
2022/06/13 11:42:18;;;;;;;0.20;0.20;;;20.60;98.50;;;;;;5114653;28;20622;-59
2022/06/13 11:44:49;;;;;;;0.10;0.10;;;20.60;98.80;;;;;;5114803;28;20585;-58
2022/06/13 11:47:17;;;;;;;0.05;0.05;;;20.40;98.20;;;;;;5114798;28;20205;-59
2022/06/13 11:49:46;;;;;;;0.10;0.10;;;20.10;99.10;;;;;;5113402;28;20590;-59
2022/06/13 11:52:11;;;;;;;0.00;0.00;;;20.20;98.40;;;;;;5113520;28;20169;-58
2022/06/13 11:54:46;;;;;;;0.28;0.28;;;20.30;99.20;;;;;;5114584;28;20183;-59
2022/06/13 11:57:18;;;;;;;0.08;0.08;;;20.90;99.00;;;;;;5114588;28;20259;-62
2022/06/13 11:59:47;;;;;;;0.10;0.10;;;21.10;97.70;;;;;;5114432;28;20169;-58
2022/06/13 12:02:18;;;;;;;0.17;0.08;;;20.50;97.00;;;;;;5114273;28;20194;-59
2022/06/13 12:04:46;;;;;;;0.73;0.73;;;20.30;97.50;;;;;;5114586;28;20192;-58
2022/06/13 12:07:23;;;;;;;0.13;0.13;;;20.00;97.50;;;;;;5112936;28;20281;-58
2022/06/13 12:09:56;;;;;;;0.10;0.10;;;20.60;97.10;;;;;;5114077;28;20176;-60
2022/06/13 12:12:22;;;;;;;0.00;0.00;;;21.10;98.60;;;;;;5114342;28;20176;-59
2022/06/13 12:14:48;;;;;;;0.00;0.00;;;21.30;97.50;;;;;;5114232;28;20173;-60
2022/06/13 12:17:38;;;;;;;0.10;0.10;;;21.60;98.10;;;;;;5114274;28;20268;-59
2022/06/13 12:20:07;;;;;;;0.00;0.00;;;21.80;96.30;;;;;;5114533;28;20248;-59
2022/06/13 12:23:02;;;;;;;0.40;0.10;;;21.00;96.50;;;;;;5114131;28;20173;-57
2022/06/13 12:25:49;;;;;;;0.10;0.10;;;20.90;96.20;;;;;;5100061;28;20209;-58
2022/06/13 12:28:21;;;;;;;0.08;0.08;;;21.20;95.60;;;;;;5114244;28;20195;-58
2022/06/13 12:30:47;;;;;;;0.03;0.03;;;21.40;96.20;;;;;;5114104;28;20609;-58
2022/06/13 12:33:30;;;;;;;0.10;0.10;;;21.80;96.60;;;;;;5113920;28;20165;-59
2022/06/13 12:36:19;;;;;;;0.10;0.10;;;22.20;96.10;;;;;;5114033;28;20234;-57
2022/06/13 12:38:51;;;;;;;0.10;0.10;;;22.00;95.20;;;;;;5114065;28;20180;-58
2022/06/13 12:41:30;;;;;;;0.10;0.10;;;22.30;95.60;;;;;;5113958;28;20252;-57
2022/06/13 12:44:33;;;;;;;0.03;0.03;;;21.60;95.10;;;;;;5113864;28;20168;-57
2022/06/13 12:47:15;;;;;;;0.08;0.05;;;19.90;95.10;;;;;;5113717;28;20677;-57
2022/06/13 12:49:40;;;;;;;0.00;0.00;;;19.40;95.50;;;;;;5113820;28;20542;-57
2022/06/13 12:52:31;;;;;;;0.20;0.20;;;19.60;96.30;;;;;;5113601;28;20161;-58
2022/06/13 12:55:17;;;;;;;0.00;0.00;;;20.50;97.50;;;;;;5113919;28;20170;-58
2022/06/13 12:58:08;;;;;;;0.22;0.20;;;21.00;96.20;;;;;;5113897;28;20646;-58
2022/06/13 13:00:58;;;;;;;0.00;0.00;;;21.30;95.70;;;;;;5112325;28;20185;-58
2022/06/13 13:03:45;;;;;;;0.00;0.00;;;21.20;95.40;;;;;;5113762;28;20178;-57
2022/06/13 13:06:41;;;;;;;0.10;0.10;;;21.80;95.70;;;;;;5113567;28;20216;-58
2022/06/13 13:09:42;;;;;;;0.20;0.13;;;22.10;95.90;;;;;;5113575;28;20219;-58
2022/06/13 13:12:41;;;;;;;0.15;0.15;;;22.10;94.50;;;;;;5113720;28;20169;-57
2022/06/13 13:15:19;;;;;;;0.00;0.00;;;20.90;94.80;;;;;;5113529;28;20166;-58
2022/06/13 13:18:04;;;;;;;0.00;0.00;;;20.20;94.60;;;;;;5113829;28;20168;-58
2022/06/13 13:20:41;;;;;;;0.20;0.10;;;20.30;94.60;;;;;;5114208;28;20169;-58
2022/06/13 13:23:27;;;;;;;0.13;0.13;;;20.30;95.70;;;;;;5117678;28;20169;-58
2022/06/13 13:26:14;;;;;;;0.00;0.00;;;20.40;95.40;;;;;;5117799;28;20287;-58
2022/06/13 13:29:11;;;;;;;0.10;0.10;;;19.90;94.10;;;;;;5117725;28;20213;-57
2022/06/13 13:31:44;;;;;;;0.00;0.00;;;19.60;94.20;;;;;;5116680;28;20230;-58
2022/06/13 13:34:47;;;;;;;0.00;0.00;;;19.50;97.00;;;;;;5117527;28;20634;-57
2022/06/13 13:37:52;;;;;;;0.30;0.08;;;20.00;96.40;;;;;;5115843;28;20187;-58
2022/06/13 13:40:39;;;;;;;0.00;0.00;;;20.60;95.80;;;;;;5117321;28;20208;-57
2022/06/13 13:43:11;;;;;;;0.10;0.10;;;20.70;95.30;;;;;;5116094;28;20260;-58
2022/06/13 13:45:48;;;;;;;0.10;0.10;;;20.80;94.10;;;;;;5117109;28;20201;-58
2022/06/13 13:48:31;;;;;;;0.20;0.20;;;20.30;93.80;;;;;;5116988;28;20169;-58
2022/06/13 13:51:21;;;;;;;0.00;0.00;;;19.80;94.10;;;;;;5117636;28;20177;-57
2022/06/13 13:54:14;;;;;;;0.00;0.00;;;19.20;94.80;;;;;;5117424;28;20184;-57